KFMY/FMY METAR and TAF weather

Enter ICAO airport designator
Station Type Date Time Source
KFMY METAR 2021/08/02 01:53 UTC NOAA

KFMY 020153Z AUTO 24005KT 10SM CLR 29/25 A3005 RMK AO2 SLP178 T02940250


Station Type Date Time Source
KFMY Decoded METAR 2021/08/02 01:53 UTC NOAA

FORT MYERS PAGE FIELD, FL, United States (KFMY) 26-35N 081-52W 4M
Aug 01, 2021 - 09:53 PM EDT / 2021.08.02 0153 UTC
Wind: from the WSW (240 degrees) at 6 MPH (5 KT):0
Visibility: 10 mile(s):0
Sky conditions: clear
Temperature: 84.9 F (29.4 C)
Dew Point: 77.0 F (25.0 C)
Relative Humidity: 77%
Pressure (altimeter): 30.05 in. Hg (1017 hPa)
ob: KFMY 020153Z AUTO 24005KT 10SM CLR 29/25 A3005 RMK AO2 SLP178 T02940250
cycle: 2

Station Type Date Time Source
KFMY TAF 2021/08/01 18:45 UTC NOAA

TAF KFMY 011742Z 0118/0218 24006KT P6SM VCSH SCT030 SCT080
FM012000 26008KT P6SM SCT040 SCT250
FM020200 VRB03KT P6SM FEW025 SCT250
FM021500 24006KT P6SM SCT030 SCT250

Example: see airport list